Terminal Aerodrome Forecast
Issued by NWS Wichita, KS

Home | Current Version | Previous Version | Graphics & Text | Print | Product List | Glossary On
Versions: 1 2 3 4 5 6 7 8 9 10 11 12 13 14 15 16 17 18
000
FTUS43 KICT 010520
TAFICT
TAF
KICT 010520Z 0106/0206 12007KT P6SM SCT020 BKN060
     FM010900 12006KT 5SM BR SCT007 BKN012
     FM011500 15011KT P6SM SCT020 BKN060=

USA.gov is the U.S. government's official web portal to all federal, state and local government web resources and services.